Standing Rock Reservation, South Dakota
Current Conditions -  °F | °C
As of 4:52 PM on Friday 28 Nov 2014 (Local Time) from KMBG Reporting Station
Clear Clear  
Wind Chill: 15°   Ceiling: Unl
Heat Index: 25°   Visibility: 10mi
Dew Point: 19°   Wind: 10mph
Humidity: 78%   Direction: 120°ESE
Pressure: 29.55"   Gusts: NA
Location:  45.0005°N, 101.234°W
Report Text: KMBG 282352Z AUTO 12009KT 10SM CLR M04/M07 A2955 RMK AO2 SLP031 T10391072 11011 21044 58015
Loading
Personal Weather Stations






























Interactive Weather Map New forecast layout! Learn more

10-Day Weather Forecast

Advertisements
Track Severe Weather on mobile